Lynden, Washington
Current Conditions -  °F | °C
As of 6:00 AM on Tuesday 27 Jan 2015 (Local Time) from CYXX Reporting Station
Overcast Overcast  
Wind Chill: 45°   Ceiling: 3000
Heat Index: 45°   Visibility: 8mi
Dew Point: 45°   Wind: 3mph
Humidity: 100%   Direction: 320°NW
Pressure: 29.99"   Gusts: NA
Location:  48.94°N, 122.45°W
Report Text: CYXX 271400Z 32003KT 300V070 8SM SCT015 BKN030 OVC050 07/07 A2999 RMK SC3SC3SC2 SLP156
Loading
Personal Weather Stations






























Interactive Weather Map New forecast layout! Learn more

10-Day Weather Forecast

Advertisements
Track Severe Weather on mobile